sensor_id;sensor_type;location;lat;lon;timestamp;P1;durP1;ratioP1;P2;durP2;ratioP2
22425;SDS011;11380;50.822;15.790;2023-09-18T00:00:39;62.60;;;53.58;;
22425;SDS011;11380;50.822;15.790;2023-09-18T00:05:48;60.90;;;54.00;;
22425;SDS011;11380;50.822;15.790;2023-09-18T00:10:59;61.90;;;54.00;;
22425;SDS011;11380;50.822;15.790;2023-09-18T00:16:06;61.07;;;53.67;;
22425;SDS011;11380;50.822;15.790;2023-09-18T00:21:13;62.47;;;54.57;;
22425;SDS011;11380;50.822;15.790;2023-09-18T00:26:21;60.23;;;53.27;;
22425;SDS011;11380;50.822;15.790;2023-09-18T00:31:28;61.20;;;53.33;;
22425;SDS011;11380;50.822;15.790;2023-09-18T00:36:35;61.50;;;53.55;;
22425;SDS011;11380;50.822;15.790;2023-09-18T00:41:43;68.10;;;54.30;;
22425;SDS011;11380;50.822;15.790;2023-09-18T00:46:52;60.20;;;53.30;;
22425;SDS011;11380;50.822;15.790;2023-09-18T00:52:01;62.00;;;54.00;;
22425;SDS011;11380;50.822;15.790;2023-09-18T00:57:09;60.17;;;53.20;;
22425;SDS011;11380;50.822;15.790;2023-09-18T01:02:16;60.13;;;53.50;;
22425;SDS011;11380;50.822;15.790;2023-09-18T01:07:25;60.13;;;53.23;;
22425;SDS011;11380;50.822;15.790;2023-09-18T01:12:34;63.67;;;53.83;;
22425;SDS011;11380;50.822;15.790;2023-09-18T01:17:55;61.53;;;53.47;;
22425;SDS011;11380;50.822;15.790;2023-09-18T01:23:02;61.53;;;54.03;;
22425;SDS011;11380;50.822;15.790;2023-09-18T01:28:10;62.83;;;54.03;;
22425;SDS011;11380;50.822;15.790;2023-09-18T01:33:17;61.77;;;54.07;;
22425;SDS011;11380;50.822;15.790;2023-09-18T01:38:27;60.40;;;53.53;;
22425;SDS011;11380;50.822;15.790;2023-09-18T01:43:35;61.92;;;53.55;;
22425;SDS011;11380;50.822;15.790;2023-09-18T01:48:46;63.10;;;53.30;;
22425;SDS011;11380;50.822;15.790;2023-09-18T01:53:54;61.23;;;53.77;;
22425;SDS011;11380;50.822;15.790;2023-09-18T01:59:02;61.00;;;53.50;;
22425;SDS011;11380;50.822;15.790;2023-09-18T02:04:09;59.67;;;53.03;;
22425;SDS011;11380;50.822;15.790;2023-09-18T02:09:18;60.20;;;53.60;;
22425;SDS011;11380;50.822;15.790;2023-09-18T02:19:31;60.10;;;53.50;;
22425;SDS011;11380;50.822;15.790;2023-09-18T02:29:43;60.40;;;53.75;;
22425;SDS011;11380;50.822;15.790;2023-09-18T02:34:50;60.00;;;53.37;;
22425;SDS011;11380;50.822;15.790;2023-09-18T02:39:57;60.73;;;54.00;;
22425;SDS011;11380;50.822;15.790;2023-09-18T02:45:04;60.13;;;53.07;;
22425;SDS011;11380;50.822;15.790;2023-09-18T02:50:13;60.23;;;53.60;;
22425;SDS011;11380;50.822;15.790;2023-09-18T02:55:22;61.13;;;53.85;;
22425;SDS011;11380;50.822;15.790;2023-09-18T03:00:30;60.85;;;53.73;;
22425;SDS011;11380;50.822;15.790;2023-09-18T03:05:38;60.37;;;53.50;;
22425;SDS011;11380;50.822;15.790;2023-09-18T03:10:46;65.63;;;54.23;;
22425;SDS011;11380;50.822;15.790;2023-09-18T03:15:53;61.23;;;53.73;;
22425;SDS011;11380;50.822;15.790;2023-09-18T03:21:00;60.63;;;53.90;;
22425;SDS011;11380;50.822;15.790;2023-09-18T03:26:09;62.13;;;54.07;;
22425;SDS011;11380;50.822;15.790;2023-09-18T03:31:16;61.10;;;53.80;;
22425;SDS011;11380;50.822;15.790;2023-09-18T03:36:23;60.93;;;54.23;;
22425;SDS011;11380;50.822;15.790;2023-09-18T03:41:30;60.20;;;53.60;;
22425;SDS011;11380;50.822;15.790;2023-09-18T03:46:38;62.37;;;54.00;;
22425;SDS011;11380;50.822;15.790;2023-09-18T03:51:45;62.53;;;53.90;;
22425;SDS011;11380;50.822;15.790;2023-09-18T03:56:52;60.63;;;53.95;;
22425;SDS011;11380;50.822;15.790;2023-09-18T04:01:59;62.90;;;53.93;;
22425;SDS011;11380;50.822;15.790;2023-09-18T04:07:07;59.77;;;53.23;;
22425;SDS011;11380;50.822;15.790;2023-09-18T04:12:15;60.60;;;53.77;;
22425;SDS011;11380;50.822;15.790;2023-09-18T04:17:23;60.73;;;53.63;;
22425;SDS011;11380;50.822;15.790;2023-09-18T04:22:30;61.23;;;53.90;;
22425;SDS011;11380;50.822;15.790;2023-09-18T04:27:38;60.08;;;53.45;;
22425;SDS011;11380;50.822;15.790;2023-09-18T04:32:45;59.20;;;52.75;;
22425;SDS011;11380;50.822;15.790;2023-09-18T04:37:55;61.67;;;53.93;;
22425;SDS011;11380;50.822;15.790;2023-09-18T04:43:01;62.23;;;54.07;;
22425;SDS011;11380;50.822;15.790;2023-09-18T04:48:09;60.27;;;53.67;;
22425;SDS011;11380;50.822;15.790;2023-09-18T04:58:23;59.93;;;52.85;;
22425;SDS011;11380;50.822;15.790;2023-09-18T05:03:33;60.43;;;53.83;;
22425;SDS011;11380;50.822;15.790;2023-09-18T05:08:40;59.63;;;53.13;;
22425;SDS011;11380;50.822;15.790;2023-09-18T05:13:48;59.77;;;53.20;;
22425;SDS011;11380;50.822;15.790;2023-09-18T05:18:55;60.97;;;53.33;;
22425;SDS011;11380;50.822;15.790;2023-09-18T05:24:02;63.97;;;53.63;;
22425;SDS011;11380;50.822;15.790;2023-09-18T05:29:10;60.03;;;53.47;;
22425;SDS011;11380;50.822;15.790;2023-09-18T05:39:23;64.75;;;53.48;;
22425;SDS011;11380;50.822;15.790;2023-09-18T05:44:30;62.37;;;53.77;;
22425;SDS011;11380;50.822;15.790;2023-09-18T05:49:37;61.18;;;53.78;;
22425;SDS011;11380;50.822;15.790;2023-09-18T05:54:44;61.67;;;54.20;;
22425;SDS011;11380;50.822;15.790;2023-09-18T05:59:51;64.10;;;54.90;;
22425;SDS011;11380;50.822;15.790;2023-09-18T06:05:02;63.17;;;55.20;;
22425;SDS011;11380;50.822;15.790;2023-09-18T06:10:09;63.90;;;54.67;;
22425;SDS011;11380;50.822;15.790;2023-09-18T06:15:16;72.60;;;55.27;;
22425;SDS011;11380;50.822;15.790;2023-09-18T06:20:23;70.47;;;56.40;;
22425;SDS011;11380;50.822;15.790;2023-09-18T06:25:30;77.35;;;55.83;;
22425;SDS011;11380;50.822;15.790;2023-09-18T06:30:37;68.67;;;56.13;;
22425;SDS011;11380;50.822;15.790;2023-09-18T06:35:46;86.22;;;56.53;;
22425;SDS011;11380;50.822;15.790;2023-09-18T06:40:53;77.17;;;56.17;;
22425;SDS011;11380;50.822;15.790;2023-09-18T06:46:00;72.63;;;57.30;;
22425;SDS011;11380;50.822;15.790;2023-09-18T06:51:08;68.97;;;56.33;;
22425;SDS011;11380;50.822;15.790;2023-09-18T06:56:14;70.00;;;56.57;;
22425;SDS011;11380;50.822;15.790;2023-09-18T07:01:23;70.03;;;56.50;;
22425;SDS011;11380;50.822;15.790;2023-09-18T07:06:32;71.97;;;57.27;;
22425;SDS011;11380;50.822;15.790;2023-09-18T07:11:39;67.90;;;56.33;;
22425;SDS011;11380;50.822;15.790;2023-09-18T07:16:46;67.83;;;56.20;;
22425;SDS011;11380;50.822;15.790;2023-09-18T07:21:53;69.37;;;56.10;;
22425;SDS011;11380;50.822;15.790;2023-09-18T07:27:00;70.73;;;56.70;;
22425;SDS011;11380;50.822;15.790;2023-09-18T07:32:08;69.53;;;56.73;;
22425;SDS011;11380;50.822;15.790;2023-09-18T07:37:17;68.40;;;55.83;;
22425;SDS011;11380;50.822;15.790;2023-09-18T07:42:25;69.63;;;56.90;;
22425;SDS011;11380;50.822;15.790;2023-09-18T07:47:32;73.67;;;59.10;;
22425;SDS011;11380;50.822;15.790;2023-09-18T07:52:39;71.20;;;57.43;;
22425;SDS011;11380;50.822;15.790;2023-09-18T07:57:45;73.80;;;59.47;;
22425;SDS011;11380;50.822;15.790;2023-09-18T08:02:54;74.27;;;59.67;;
22425;SDS011;11380;50.822;15.790;2023-09-18T08:08:05;75.30;;;59.77;;
22425;SDS011;11380;50.822;15.790;2023-09-18T08:13:12;75.43;;;60.30;;
22425;SDS011;11380;50.822;15.790;2023-09-18T08:18:19;74.47;;;59.63;;
22425;SDS011;11380;50.822;15.790;2023-09-18T08:23:27;74.86;;;59.92;;
22425;SDS011;11380;50.822;15.790;2023-09-18T08:28:33;72.73;;;58.40;;
22425;SDS011;11380;50.822;15.790;2023-09-18T08:33:42;72.57;;;57.20;;
22425;SDS011;11380;50.822;15.790;2023-09-18T08:38:49;72.40;;;57.65;;
22425;SDS011;11380;50.822;15.790;2023-09-18T08:43:59;72.37;;;57.37;;
22425;SDS011;11380;50.822;15.790;2023-09-18T08:49:07;72.30;;;57.30;;
22425;SDS011;11380;50.822;15.790;2023-09-18T08:54:16;73.93;;;58.40;;
22425;SDS011;11380;50.822;15.790;2023-09-18T08:59:24;73.87;;;58.50;;
22425;SDS011;11380;50.822;15.790;2023-09-18T09:04:32;73.73;;;58.27;;
22425;SDS011;11380;50.822;15.790;2023-09-18T09:09:40;72.75;;;57.85;;
22425;SDS011;11380;50.822;15.790;2023-09-18T09:15:02;74.67;;;59.17;;
22425;SDS011;11380;50.822;15.790;2023-09-18T09:20:15;73.20;;;58.33;;
22425;SDS011;11380;50.822;15.790;2023-09-18T09:25:21;80.23;;;58.80;;
22425;SDS011;11380;50.822;15.790;2023-09-18T09:30:33;74.50;;;58.98;;
22425;SDS011;11380;50.822;15.790;2023-09-18T09:35:41;73.45;;;58.65;;
22425;SDS011;11380;50.822;15.790;2023-09-18T09:40:48;75.37;;;59.10;;
22425;SDS011;11380;50.822;15.790;2023-09-18T09:45:59;74.83;;;59.70;;
22425;SDS011;11380;50.822;15.790;2023-09-18T09:51:08;76.37;;;59.50;;
22425;SDS011;11380;50.822;15.790;2023-09-18T09:56:36;74.78;;;59.30;;
22425;SDS011;11380;50.822;15.790;2023-09-18T10:01:49;74.35;;;58.42;;
22425;SDS011;11380;50.822;15.790;2023-09-18T10:06:58;76.77;;;59.60;;
22425;SDS011;11380;50.822;15.790;2023-09-18T10:12:15;75.73;;;59.97;;
22425;SDS011;11380;50.822;15.790;2023-09-18T10:17:19;77.57;;;60.07;;
22425;SDS011;11380;50.822;15.790;2023-09-18T10:27:42;75.25;;;59.27;;
22425;SDS011;11380;50.822;15.790;2023-09-18T10:32:53;78.03;;;61.07;;
22425;SDS011;11380;50.822;15.790;2023-09-18T10:38:01;76.13;;;60.37;;
22425;SDS011;11380;50.822;15.790;2023-09-18T10:43:10;77.95;;;60.65;;
22425;SDS011;11380;50.822;15.790;2023-09-18T10:48:22;76.10;;;60.70;;
22425;SDS011;11380;50.822;15.790;2023-09-18T10:53:31;80.42;;;60.95;;
22425;SDS011;11380;50.822;15.790;2023-09-18T10:58:38;79.57;;;61.27;;
22425;SDS011;11380;50.822;15.790;2023-09-18T11:03:45;77.03;;;60.67;;
22425;SDS011;11380;50.822;15.790;2023-09-18T11:09:02;77.13;;;61.43;;
22425;SDS011;11380;50.822;15.790;2023-09-18T11:14:14;78.63;;;60.80;;
22425;SDS011;11380;50.822;15.790;2023-09-18T11:19:20;77.20;;;60.65;;
22425;SDS011;11380;50.822;15.790;2023-09-18T11:24:28;77.97;;;60.67;;
22425;SDS011;11380;50.822;15.790;2023-09-18T11:29:35;76.43;;;60.30;;
22425;SDS011;11380;50.822;15.790;2023-09-18T11:34:43;78.57;;;61.27;;
22425;SDS011;11380;50.822;15.790;2023-09-18T11:39:52;77.37;;;61.23;;
22425;SDS011;11380;50.822;15.790;2023-09-18T11:45:01;78.73;;;61.43;;
22425;SDS011;11380;50.822;15.790;2023-09-18T11:50:10;77.50;;;60.45;;
22425;SDS011;11380;50.822;15.790;2023-09-18T11:55:18;77.23;;;60.90;;
22425;SDS011;11380;50.822;15.790;2023-09-18T12:00:25;76.10;;;60.50;;
22425;SDS011;11380;50.822;15.790;2023-09-18T12:05:33;78.50;;;60.25;;
22425;SDS011;11380;50.822;15.790;2023-09-18T12:10:40;78.40;;;61.55;;
22425;SDS011;11380;50.822;15.790;2023-09-18T12:15:48;79.30;;;61.23;;
22425;SDS011;11380;50.822;15.790;2023-09-18T12:20:56;78.87;;;61.17;;
22425;SDS011;11380;50.822;15.790;2023-09-18T12:26:04;76.60;;;60.93;;
22425;SDS011;11380;50.822;15.790;2023-09-18T12:31:13;78.60;;;61.18;;
22425;SDS011;11380;50.822;15.790;2023-09-18T12:36:22;76.83;;;61.23;;
22425;SDS011;11380;50.822;15.790;2023-09-18T12:41:30;77.73;;;60.43;;
22425;SDS011;11380;50.822;15.790;2023-09-18T12:46:37;78.37;;;60.07;;
22425;SDS011;11380;50.822;15.790;2023-09-18T12:51:54;77.75;;;60.05;;
22425;SDS011;11380;50.822;15.790;2023-09-18T12:57:09;79.97;;;60.80;;
22425;SDS011;11380;50.822;15.790;2023-09-18T13:02:18;76.47;;;60.00;;
22425;SDS011;11380;50.822;15.790;2023-09-18T13:07:25;79.17;;;59.77;;
22425;SDS011;11380;50.822;15.790;2023-09-18T13:12:41;77.40;;;60.57;;
22425;SDS011;11380;50.822;15.790;2023-09-18T13:17:57;76.50;;;60.10;;
22425;SDS011;11380;50.822;15.790;2023-09-18T13:23:08;76.20;;;60.08;;
22425;SDS011;11380;50.822;15.790;2023-09-18T13:28:15;76.53;;;59.97;;
22425;SDS011;11380;50.822;15.790;2023-09-18T13:33:24;75.47;;;59.87;;
22425;SDS011;11380;50.822;15.790;2023-09-18T13:38:31;75.97;;;59.83;;
22425;SDS011;11380;50.822;15.790;2023-09-18T13:43:38;77.42;;;59.30;;
22425;SDS011;11380;50.822;15.790;2023-09-18T13:48:45;78.27;;;59.50;;
22425;SDS011;11380;50.822;15.790;2023-09-18T13:53:53;78.70;;;60.13;;
22425;SDS011;11380;50.822;15.790;2023-09-18T13:59:01;76.83;;;60.80;;
22425;SDS011;11380;50.822;15.790;2023-09-18T14:04:08;75.97;;;60.30;;
22425;SDS011;11380;50.822;15.790;2023-09-18T14:09:15;77.40;;;60.10;;
22425;SDS011;11380;50.822;15.790;2023-09-18T14:14:23;77.74;;;60.78;;
22425;SDS011;11380;50.822;15.790;2023-09-18T14:19:31;76.53;;;60.15;;
22425;SDS011;11380;50.822;15.790;2023-09-18T14:24:39;77.58;;;60.67;;
22425;SDS011;11380;50.822;15.790;2023-09-18T14:29:46;77.60;;;61.20;;
22425;SDS011;11380;50.822;15.790;2023-09-18T14:34:52;78.65;;;60.28;;
22425;SDS011;11380;50.822;15.790;2023-09-18T14:39:59;77.90;;;59.77;;
22425;SDS011;11380;50.822;15.790;2023-09-18T14:45:07;79.15;;;60.12;;
22425;SDS011;11380;50.822;15.790;2023-09-18T14:50:18;77.33;;;60.37;;
22425;SDS011;11380;50.822;15.790;2023-09-18T14:55:25;75.63;;;59.73;;
22425;SDS011;11380;50.822;15.790;2023-09-18T15:00:32;75.73;;;60.33;;
22425;SDS011;11380;50.822;15.790;2023-09-18T15:05:39;76.97;;;59.80;;
22425;SDS011;11380;50.822;15.790;2023-09-18T15:10:47;76.23;;;60.17;;
22425;SDS011;11380;50.822;15.790;2023-09-18T15:15:54;78.00;;;60.00;;
22425;SDS011;11380;50.822;15.790;2023-09-18T15:21:02;78.60;;;59.87;;
22425;SDS011;11380;50.822;15.790;2023-09-18T15:26:09;78.73;;;60.13;;
22425;SDS011;11380;50.822;15.790;2023-09-18T15:31:16;81.57;;;60.10;;
22425;SDS011;11380;50.822;15.790;2023-09-18T15:36:25;77.73;;;60.87;;
22425;SDS011;11380;50.822;15.790;2023-09-18T15:41:32;78.83;;;59.88;;
22425;SDS011;11380;50.822;15.790;2023-09-18T15:46:40;78.50;;;61.27;;
22425;SDS011;11380;50.822;15.790;2023-09-18T15:51:50;77.70;;;60.27;;
22425;SDS011;11380;50.822;15.790;2023-09-18T15:56:56;75.55;;;59.85;;
22425;SDS011;11380;50.822;15.790;2023-09-18T16:02:04;78.12;;;59.63;;
22425;SDS011;11380;50.822;15.790;2023-09-18T16:07:13;75.57;;;60.17;;
22425;SDS011;11380;50.822;15.790;2023-09-18T16:12:23;78.92;;;60.52;;
22425;SDS011;11380;50.822;15.790;2023-09-18T16:17:31;81.80;;;59.45;;
22425;SDS011;11380;50.822;15.790;2023-09-18T16:22:38;80.40;;;61.57;;
22425;SDS011;11380;50.822;15.790;2023-09-18T16:27:48;77.83;;;60.37;;
22425;SDS011;11380;50.822;15.790;2023-09-18T16:32:55;79.33;;;59.63;;
22425;SDS011;11380;50.822;15.790;2023-09-18T16:38:04;77.93;;;59.27;;
22425;SDS011;11380;50.822;15.790;2023-09-18T16:43:11;75.62;;;59.63;;
22425;SDS011;11380;50.822;15.790;2023-09-18T16:48:18;80.50;;;61.05;;
22425;SDS011;11380;50.822;15.790;2023-09-18T16:53:25;76.70;;;59.03;;
22425;SDS011;11380;50.822;15.790;2023-09-18T16:58:33;81.07;;;60.47;;
22425;SDS011;11380;50.822;15.790;2023-09-18T17:03:40;77.53;;;59.67;;
22425;SDS011;11380;50.822;15.790;2023-09-18T17:08:49;75.63;;;59.57;;
22425;SDS011;11380;50.822;15.790;2023-09-18T17:13:56;80.07;;;60.27;;
22425;SDS011;11380;50.822;15.790;2023-09-18T17:19:05;78.53;;;60.13;;
22425;SDS011;11380;50.822;15.790;2023-09-18T17:24:14;76.77;;;60.33;;
22425;SDS011;11380;50.822;15.790;2023-09-18T17:29:23;77.60;;;60.10;;
22425;SDS011;11380;50.822;15.790;2023-09-18T17:34:31;75.25;;;59.70;;
22425;SDS011;11380;50.822;15.790;2023-09-18T17:39:38;75.80;;;60.60;;
22425;SDS011;11380;50.822;15.790;2023-09-18T17:44:45;76.87;;;59.60;;
22425;SDS011;11380;50.822;15.790;2023-09-18T17:49:52;74.83;;;60.47;;
22425;SDS011;11380;50.822;15.790;2023-09-18T17:54:59;76.75;;;61.05;;
22425;SDS011;11380;50.822;15.790;2023-09-18T18:00:08;84.37;;;60.87;;
22425;SDS011;11380;50.822;15.790;2023-09-18T18:05:18;77.33;;;60.50;;
22425;SDS011;11380;50.822;15.790;2023-09-18T18:10:27;78.57;;;60.80;;
22425;SDS011;11380;50.822;15.790;2023-09-18T18:15:36;82.90;;;60.70;;
22425;SDS011;11380;50.822;15.790;2023-09-18T18:20:43;80.20;;;60.67;;
22425;SDS011;11380;50.822;15.790;2023-09-18T18:25:51;79.00;;;61.80;;
22425;SDS011;11380;50.822;15.790;2023-09-18T18:30:58;81.33;;;61.17;;
22425;SDS011;11380;50.822;15.790;2023-09-18T18:36:05;75.60;;;61.17;;
22425;SDS011;11380;50.822;15.790;2023-09-18T18:41:16;81.27;;;61.07;;
22425;SDS011;11380;50.822;15.790;2023-09-18T18:46:23;77.08;;;61.15;;
22425;SDS011;11380;50.822;15.790;2023-09-18T18:51:32;79.10;;;60.60;;
22425;SDS011;11380;50.822;15.790;2023-09-18T18:56:41;77.47;;;60.93;;
22425;SDS011;11380;50.822;15.790;2023-09-18T19:01:48;77.53;;;61.93;;
22425;SDS011;11380;50.822;15.790;2023-09-18T19:06:58;79.07;;;61.17;;
22425;SDS011;11380;50.822;15.790;2023-09-18T19:12:06;77.17;;;60.92;;
22425;SDS011;11380;50.822;15.790;2023-09-18T19:17:13;76.37;;;61.33;;
22425;SDS011;11380;50.822;15.790;2023-09-18T19:22:19;76.00;;;60.90;;
22425;SDS011;11380;50.822;15.790;2023-09-18T19:27:26;79.17;;;61.60;;
22425;SDS011;11380;50.822;15.790;2023-09-18T19:32:41;78.43;;;62.10;;
22425;SDS011;11380;50.822;15.790;2023-09-18T19:37:45;79.30;;;61.47;;
22425;SDS011;11380;50.822;15.790;2023-09-18T19:42:55;78.20;;;62.63;;
22425;SDS011;11380;50.822;15.790;2023-09-18T19:48:04;78.73;;;61.40;;
22425;SDS011;11380;50.822;15.790;2023-09-18T19:53:12;76.47;;;61.77;;
22425;SDS011;11380;50.822;15.790;2023-09-18T19:58:20;76.37;;;60.83;;
22425;SDS011;11380;50.822;15.790;2023-09-18T20:03:28;79.90;;;61.70;;
22425;SDS011;11380;50.822;15.790;2023-09-18T20:08:35;75.70;;;59.00;;
22425;SDS011;11380;50.822;15.790;2023-09-18T20:13:43;75.97;;;57.37;;
22425;SDS011;11380;50.822;15.790;2023-09-18T20:18:51;71.33;;;57.23;;
22425;SDS011;11380;50.822;15.790;2023-09-18T20:23:58;76.90;;;57.40;;
22425;SDS011;11380;50.822;15.790;2023-09-18T20:29:05;71.13;;;56.50;;
22425;SDS011;11380;50.822;15.790;2023-09-18T20:34:13;73.33;;;55.93;;
22425;SDS011;11380;50.822;15.790;2023-09-18T20:39:20;71.47;;;55.17;;
22425;SDS011;11380;50.822;15.790;2023-09-18T20:44:28;70.38;;;55.56;;
22425;SDS011;11380;50.822;15.790;2023-09-18T20:49:36;67.07;;;54.27;;
22425;SDS011;11380;50.822;15.790;2023-09-18T20:54:45;69.73;;;54.73;;
22425;SDS011;11380;50.822;15.790;2023-09-18T20:59:51;67.20;;;54.63;;
22425;SDS011;11380;50.822;15.790;2023-09-18T21:04:58;70.03;;;54.40;;
22425;SDS011;11380;50.822;15.790;2023-09-18T21:10:06;68.07;;;54.07;;
22425;SDS011;11380;50.822;15.790;2023-09-18T21:15:16;71.17;;;54.03;;
22425;SDS011;11380;50.822;15.790;2023-09-18T21:20:24;65.85;;;53.52;;
22425;SDS011;11380;50.822;15.790;2023-09-18T21:25:30;69.20;;;54.40;;
22425;SDS011;11380;50.822;15.790;2023-09-18T21:30:38;66.62;;;54.20;;
22425;SDS011;11380;50.822;15.790;2023-09-18T21:35:45;68.27;;;54.40;;
22425;SDS011;11380;50.822;15.790;2023-09-18T21:40:52;66.57;;;53.97;;
22425;SDS011;11380;50.822;15.790;2023-09-18T21:46:02;67.87;;;54.07;;
22425;SDS011;11380;50.822;15.790;2023-09-18T21:51:09;67.07;;;54.20;;
22425;SDS011;11380;50.822;15.790;2023-09-18T21:56:18;67.97;;;54.50;;
22425;SDS011;11380;50.822;15.790;2023-09-18T22:01:25;70.23;;;54.27;;
22425;SDS011;11380;50.822;15.790;2023-09-18T22:06:33;68.27;;;54.10;;
22425;SDS011;11380;50.822;15.790;2023-09-18T22:11:41;66.33;;;54.17;;
22425;SDS011;11380;50.822;15.790;2023-09-18T22:16:48;66.63;;;53.57;;
22425;SDS011;11380;50.822;15.790;2023-09-18T22:21:55;65.13;;;53.20;;
22425;SDS011;11380;50.822;15.790;2023-09-18T22:27:03;73.57;;;55.87;;
22425;SDS011;11380;50.822;15.790;2023-09-18T22:32:11;67.27;;;54.20;;
22425;SDS011;11380;50.822;15.790;2023-09-18T22:37:19;64.90;;;53.27;;
22425;SDS011;11380;50.822;15.790;2023-09-18T22:54:31;66.15;;;53.23;;
22425;SDS011;11380;50.822;15.790;2023-09-18T22:59:42;66.00;;;53.48;;
22425;SDS011;11380;50.822;15.790;2023-09-18T23:04:49;65.93;;;53.30;;
22425;SDS011;11380;50.822;15.790;2023-09-18T23:09:58;68.20;;;53.60;;
22425;SDS011;11380;50.822;15.790;2023-09-18T23:15:06;65.23;;;53.13;;
22425;SDS011;11380;50.822;15.790;2023-09-18T23:20:16;65.20;;;53.33;;
22425;SDS011;11380;50.822;15.790;2023-09-18T23:25:25;66.20;;;53.80;;
22425;SDS011;11380;50.822;15.790;2023-09-18T23:30:33;66.70;;;53.68;;
22425;SDS011;11380;50.822;15.790;2023-09-18T23:35:41;66.62;;;53.40;;
22425;SDS011;11380;50.822;15.790;2023-09-18T23:40:49;63.93;;;53.00;;
22425;SDS011;11380;50.822;15.790;2023-09-18T23:45:56;64.27;;;53.37;;
22425;SDS011;11380;50.822;15.790;2023-09-18T23:51:06;67.23;;;53.80;;
22425;SDS011;11380;50.822;15.790;2023-09-18T23:56:13;66.45;;;52.95;;
